sensor_id;sensor_type;location;lat;lon;timestamp;pressure;altitude;pressure_sealevel;temperature;humidity
29215;BME280;16252;49.816;7.964;2023-02-17T00:00:29;100724.56;;;9.58;66.40
29215;BME280;16252;49.816;7.964;2023-02-17T00:02:58;100689.13;;;9.54;66.30
29215;BME280;16252;49.816;7.964;2023-02-17T00:05:25;100740.81;;;9.83;66.33
29215;BME280;16252;49.816;7.964;2023-02-17T00:07:50;100674.44;;;9.47;66.33
29215;BME280;16252;49.816;7.964;2023-02-17T00:10:16;100722.75;;;9.72;66.13
29215;BME280;16252;49.816;7.964;2023-02-17T00:12:41;100744.25;;;9.85;66.08
29215;BME280;16252;49.816;7.964;2023-02-17T00:15:07;100742.16;;;9.90;66.08
29215;BME280;16252;49.816;7.964;2023-02-17T00:17:32;100702.13;;;9.74;66.29
29215;BME280;16252;49.816;7.964;2023-02-17T00:19:57;100721.97;;;9.85;66.11
29215;BME280;16252;49.816;7.964;2023-02-17T00:22:23;100722.47;;;9.91;66.16
29215;BME280;16252;49.816;7.964;2023-02-17T00:24:48;100709.66;;;9.82;66.06
29215;BME280;16252;49.816;7.964;2023-02-17T00:27:14;100698.03;;;9.83;66.08
29215;BME280;16252;49.816;7.964;2023-02-17T00:29:39;100713.50;;;9.92;65.98
29215;BME280;16252;49.816;7.964;2023-02-17T00:32:04;100705.09;;;9.84;65.78
29215;BME280;16252;49.816;7.964;2023-02-17T00:34:30;100706.63;;;9.88;65.84
29215;BME280;16252;49.816;7.964;2023-02-17T00:36:56;100709.97;;;9.92;65.87
29215;BME280;16252;49.816;7.964;2023-02-17T00:39:21;100695.38;;;9.83;65.77
29215;BME280;16252;49.816;7.964;2023-02-17T00:41:46;100704.63;;;9.92;65.94
29215;BME280;16252;49.816;7.964;2023-02-17T00:44:20;100701.00;;;9.93;66.00
29215;BME280;16252;49.816;7.964;2023-02-17T00:46:46;100713.97;;;9.99;66.11
29215;BME280;16252;49.816;7.964;2023-02-17T00:49:20;100709.00;;;10.07;66.23
29215;BME280;16252;49.816;7.964;2023-02-17T00:51:46;100681.72;;;9.88;66.39
29215;BME280;16252;49.816;7.964;2023-02-17T00:54:11;100718.56;;;10.11;66.48
29215;BME280;16252;49.816;7.964;2023-02-17T00:56:37;100699.84;;;10.11;66.49
29215;BME280;16252;49.816;7.964;2023-02-17T00:59:03;100678.94;;;10.04;66.37
29215;BME280;16252;49.816;7.964;2023-02-17T01:01:29;100660.59;;;9.97;66.53
29215;BME280;16252;49.816;7.964;2023-02-17T01:03:55;100674.44;;;10.04;66.45
29215;BME280;16252;49.816;7.964;2023-02-17T01:06:23;100689.72;;;10.16;66.50
29215;BME280;16252;49.816;7.964;2023-02-17T01:08:49;100685.63;;;10.11;66.54
29215;BME280;16252;49.816;7.964;2023-02-17T01:11:18;100696.28;;;10.25;66.55
29215;BME280;16252;49.816;7.964;2023-02-17T01:13:44;100706.84;;;10.28;66.48
29215;BME280;16252;49.816;7.964;2023-02-17T01:16:24;100727.69;;;10.50;66.47
29215;BME280;16252;49.816;7.964;2023-02-17T01:18:50;100668.41;;;10.15;66.49
29215;BME280;16252;49.816;7.964;2023-02-17T01:21:22;100697.44;;;10.35;66.65
29215;BME280;16252;49.816;7.964;2023-02-17T01:23:51;100650.19;;;10.07;66.78
29215;BME280;16252;49.816;7.964;2023-02-17T01:26:19;100654.66;;;10.07;66.71
29215;BME280;16252;49.816;7.964;2023-02-17T01:28:45;100737.16;;;10.56;66.72
29215;BME280;16252;49.816;7.964;2023-02-17T01:31:11;100727.19;;;10.58;66.88
29215;BME280;16252;49.816;7.964;2023-02-17T01:33:37;100709.09;;;10.49;66.98
29215;BME280;16252;49.816;7.964;2023-02-17T01:36:05;100691.72;;;10.41;67.00
29215;BME280;16252;49.816;7.964;2023-02-17T01:38:31;100714.94;;;10.68;67.23
29215;BME280;16252;49.816;7.964;2023-02-17T01:40:57;100712.94;;;10.72;67.25
29215;BME280;16252;49.816;7.964;2023-02-17T01:43:23;100649.75;;;10.42;67.25
29215;BME280;16252;49.816;7.964;2023-02-17T01:45:51;100711.59;;;10.79;67.35
29215;BME280;16252;49.816;7.964;2023-02-17T01:48:20;100674.69;;;10.70;67.42
29215;BME280;16252;49.816;7.964;2023-02-17T01:50:52;100715.78;;;10.96;67.03
29215;BME280;16252;49.816;7.964;2023-02-17T01:53:22;100692.34;;;10.87;67.13
29215;BME280;16252;49.816;7.964;2023-02-17T01:55:49;100699.72;;;10.96;67.07
29215;BME280;16252;49.816;7.964;2023-02-17T01:58:16;100642.38;;;10.73;67.13
29215;BME280;16252;49.816;7.964;2023-02-17T02:00:43;100682.59;;;10.98;67.12
29215;BME280;16252;49.816;7.964;2023-02-17T02:03:11;100655.59;;;10.89;67.07
29215;BME280;16252;49.816;7.964;2023-02-17T02:05:38;100676.53;;;11.09;67.01
29215;BME280;16252;49.816;7.964;2023-02-17T02:08:04;100659.94;;;11.04;66.94
29215;BME280;16252;49.816;7.964;2023-02-17T02:10:29;100663.88;;;11.11;66.80
29215;BME280;16252;49.816;7.964;2023-02-17T02:12:55;100632.28;;;11.03;66.75
29215;BME280;16252;49.816;7.964;2023-02-17T02:15:22;100628.75;;;11.03;66.85
29215;BME280;16252;49.816;7.964;2023-02-17T02:18:12;100658.22;;;11.28;66.50
29215;BME280;16252;49.816;7.964;2023-02-17T02:23:40;100653.19;;;11.24;66.63
29215;BME280;16252;49.816;7.964;2023-02-17T02:29:08;100643.75;;;11.18;66.60
29215;BME280;16252;49.816;7.964;2023-02-17T02:32:04;100642.06;;;11.17;66.64
29215;BME280;16252;49.816;7.964;2023-02-17T02:34:37;100600.88;;;10.93;66.90
29215;BME280;16252;49.816;7.964;2023-02-17T02:37:16;100652.56;;;11.20;67.05
29215;BME280;16252;49.816;7.964;2023-02-17T02:39:49;100624.16;;;11.05;67.23
29215;BME280;16252;49.816;7.964;2023-02-17T02:42:20;100595.44;;;10.94;67.67
29215;BME280;16252;49.816;7.964;2023-02-17T02:44:46;100589.63;;;10.88;67.30
29215;BME280;16252;49.816;7.964;2023-02-17T02:50:10;100614.81;;;11.11;67.39
29215;BME280;16252;49.816;7.964;2023-02-17T02:55:58;100566.81;;;10.82;67.25
29215;BME280;16252;49.816;7.964;2023-02-17T02:58:41;100627.28;;;11.12;67.76
29215;BME280;16252;49.816;7.964;2023-02-17T03:01:22;100624.91;;;11.07;67.99
29215;BME280;16252;49.816;7.964;2023-02-17T03:04:10;100626.38;;;11.11;67.97
29215;BME280;16252;49.816;7.964;2023-02-17T03:06:44;100617.47;;;10.98;68.10
29215;BME280;16252;49.816;7.964;2023-02-17T03:09:16;100597.44;;;10.91;68.16
29215;BME280;16252;49.816;7.964;2023-02-17T03:11:44;100605.91;;;10.97;68.39
29215;BME280;16252;49.816;7.964;2023-02-17T03:14:14;100623.94;;;11.08;68.63
29215;BME280;16252;49.816;7.964;2023-02-17T03:16:40;100618.34;;;11.11;68.49
29215;BME280;16252;49.816;7.964;2023-02-17T03:19:08;100608.94;;;11.05;68.61
29215;BME280;16252;49.816;7.964;2023-02-17T03:21:41;100623.19;;;11.19;68.54
29215;BME280;16252;49.816;7.964;2023-02-17T03:24:08;100627.69;;;11.18;68.60
29215;BME280;16252;49.816;7.964;2023-02-17T03:26:33;100584.41;;;10.99;68.54
29215;BME280;16252;49.816;7.964;2023-02-17T03:28:59;100625.31;;;11.26;68.67
29215;BME280;16252;49.816;7.964;2023-02-17T03:31:25;100633.72;;;11.35;68.58
29215;BME280;16252;49.816;7.964;2023-02-17T03:33:50;100621.72;;;11.27;68.63
29215;BME280;16252;49.816;7.964;2023-02-17T03:36:15;100613.13;;;11.22;68.59
29215;BME280;16252;49.816;7.964;2023-02-17T03:38:41;100627.91;;;11.41;68.67
29215;BME280;16252;49.816;7.964;2023-02-17T03:41:06;100603.03;;;11.26;68.59
29215;BME280;16252;49.816;7.964;2023-02-17T03:43:31;100604.66;;;11.41;68.60
29215;BME280;16252;49.816;7.964;2023-02-17T03:45:57;100576.69;;;11.33;68.81
29215;BME280;16252;49.816;7.964;2023-02-17T03:48:22;100614.19;;;11.58;68.63
29215;BME280;16252;49.816;7.964;2023-02-17T03:50:47;100591.69;;;11.48;68.85
29215;BME280;16252;49.816;7.964;2023-02-17T03:53:12;100604.88;;;11.51;68.67
29215;BME280;16252;49.816;7.964;2023-02-17T03:55:38;100594.28;;;11.49;68.70
29215;BME280;16252;49.816;7.964;2023-02-17T03:58:03;100615.91;;;11.59;68.94
29215;BME280;16252;49.816;7.964;2023-02-17T04:00:28;100598.34;;;11.55;68.78
29215;BME280;16252;49.816;7.964;2023-02-17T04:02:54;100617.09;;;11.68;68.77
29215;BME280;16252;49.816;7.964;2023-02-17T04:05:21;100595.34;;;11.60;68.88
29215;BME280;16252;49.816;7.964;2023-02-17T04:07:47;100597.69;;;11.52;68.86
29215;BME280;16252;49.816;7.964;2023-02-17T04:10:12;100591.78;;;11.59;69.01
29215;BME280;16252;49.816;7.964;2023-02-17T04:12:37;100601.84;;;11.68;69.05
29215;BME280;16252;49.816;7.964;2023-02-17T04:15:03;100600.78;;;11.71;68.99
29215;BME280;16252;49.816;7.964;2023-02-17T04:17:28;100602.16;;;11.77;69.16
29215;BME280;16252;49.816;7.964;2023-02-17T04:19:54;100596.16;;;11.73;68.76
29215;BME280;16252;49.816;7.964;2023-02-17T04:22:19;100592.97;;;11.68;69.12
29215;BME280;16252;49.816;7.964;2023-02-17T04:24:44;100612.31;;;11.84;69.09
29215;BME280;16252;49.816;7.964;2023-02-17T04:27:09;100599.69;;;11.74;69.08
29215;BME280;16252;49.816;7.964;2023-02-17T04:29:35;100573.13;;;11.58;69.27
29215;BME280;16252;49.816;7.964;2023-02-17T04:32:00;100628.03;;;11.90;69.11
29215;BME280;16252;49.816;7.964;2023-02-17T04:34:26;100614.47;;;11.79;69.10
29215;BME280;16252;49.816;7.964;2023-02-17T04:36:51;100608.03;;;11.82;69.10
29215;BME280;16252;49.816;7.964;2023-02-17T04:39:17;100611.38;;;11.85;69.29
29215;BME280;16252;49.816;7.964;2023-02-17T04:41:42;100579.56;;;11.68;69.27
29215;BME280;16252;49.816;7.964;2023-02-17T04:44:07;100618.25;;;11.89;69.30
29215;BME280;16252;49.816;7.964;2023-02-17T04:46:33;100612.22;;;11.86;69.20
29215;BME280;16252;49.816;7.964;2023-02-17T04:48:58;100621.44;;;11.95;69.25
29215;BME280;16252;49.816;7.964;2023-02-17T04:51:23;100614.47;;;11.92;69.39
29215;BME280;16252;49.816;7.964;2023-02-17T04:53:49;100602.06;;;11.91;69.22
29215;BME280;16252;49.816;7.964;2023-02-17T04:56:14;100597.53;;;11.91;69.35
29215;BME280;16252;49.816;7.964;2023-02-17T04:58:39;100618.75;;;11.95;69.37
29215;BME280;16252;49.816;7.964;2023-02-17T05:01:05;100587.56;;;11.81;69.41
29215;BME280;16252;49.816;7.964;2023-02-17T05:03:30;100608.16;;;11.93;69.48
29215;BME280;16252;49.816;7.964;2023-02-17T05:05:55;100620.03;;;12.02;69.39
29215;BME280;16252;49.816;7.964;2023-02-17T05:08:20;100607.84;;;11.98;69.57
29215;BME280;16252;49.816;7.964;2023-02-17T05:10:46;100620.78;;;12.04;69.44
29215;BME280;16252;49.816;7.964;2023-02-17T05:13:11;100605.34;;;11.95;69.36
29215;BME280;16252;49.816;7.964;2023-02-17T05:15:36;100597.03;;;11.86;69.53
29215;BME280;16252;49.816;7.964;2023-02-17T05:18:02;100630.97;;;12.11;69.57
29215;BME280;16252;49.816;7.964;2023-02-17T05:20:28;100612.84;;;12.02;69.64
29215;BME280;16252;49.816;7.964;2023-02-17T05:22:53;100629.81;;;12.03;69.64
29215;BME280;16252;49.816;7.964;2023-02-17T05:25:18;100631.44;;;12.05;69.71
29215;BME280;16252;49.816;7.964;2023-02-17T05:27:43;100630.97;;;12.11;69.47
29215;BME280;16252;49.816;7.964;2023-02-17T05:30:09;100650.38;;;12.15;69.64
29215;BME280;16252;49.816;7.964;2023-02-17T05:32:35;100610.28;;;12.01;69.77
29215;BME280;16252;49.816;7.964;2023-02-17T05:35:00;100640.72;;;12.12;69.40
29215;BME280;16252;49.816;7.964;2023-02-17T05:37:26;100654.66;;;12.18;69.74
29215;BME280;16252;49.816;7.964;2023-02-17T05:39:51;100642.88;;;12.07;69.77
29215;BME280;16252;49.816;7.964;2023-02-17T05:42:16;100647.38;;;12.07;69.56
29215;BME280;16252;49.816;7.964;2023-02-17T05:44:42;100637.41;;;12.09;69.72
29215;BME280;16252;49.816;7.964;2023-02-17T05:47:07;100616.97;;;11.95;69.78
29215;BME280;16252;49.816;7.964;2023-02-17T05:49:32;100651.34;;;12.14;69.99
29215;BME280;16252;49.816;7.964;2023-02-17T05:51:58;100665.19;;;12.21;69.87
29215;BME280;16252;49.816;7.964;2023-02-17T05:54:23;100642.69;;;12.10;69.88
29215;BME280;16252;49.816;7.964;2023-02-17T05:56:48;100621.88;;;12.01;69.84
29215;BME280;16252;49.816;7.964;2023-02-17T05:59:14;100635.25;;;12.14;69.98
29215;BME280;16252;49.816;7.964;2023-02-17T06:01:39;100626.69;;;12.09;69.92
29215;BME280;16252;49.816;7.964;2023-02-17T06:04:04;100631.38;;;12.18;69.66
29215;BME280;16252;49.816;7.964;2023-02-17T06:06:29;100634.78;;;12.20;70.06
29215;BME280;16252;49.816;7.964;2023-02-17T06:08:55;100629.66;;;12.17;69.92
29215;BME280;16252;49.816;7.964;2023-02-17T06:11:20;100633.31;;;12.16;70.06
29215;BME280;16252;49.816;7.964;2023-02-17T06:13:45;100616.06;;;12.07;70.10
29215;BME280;16252;49.816;7.964;2023-02-17T06:16:11;100637.47;;;12.20;70.11
29215;BME280;16252;49.816;7.964;2023-02-17T06:18:36;100610.06;;;12.04;69.93
29215;BME280;16252;49.816;7.964;2023-02-17T06:21:01;100625.50;;;12.13;69.95
29215;BME280;16252;49.816;7.964;2023-02-17T06:23:27;100627.72;;;12.19;69.95
29215;BME280;16252;49.816;7.964;2023-02-17T06:25:52;100625.88;;;12.20;70.01
29215;BME280;16252;49.816;7.964;2023-02-17T06:28:17;100624.63;;;12.12;70.01
29215;BME280;16252;49.816;7.964;2023-02-17T06:30:43;100644.97;;;12.28;70.17
29215;BME280;16252;49.816;7.964;2023-02-17T06:33:09;100609.84;;;12.07;70.01
29215;BME280;16252;49.816;7.964;2023-02-17T06:35:34;100625.13;;;12.18;69.94
29215;BME280;16252;49.816;7.964;2023-02-17T06:37:59;100641.88;;;12.21;69.73
29215;BME280;16252;49.816;7.964;2023-02-17T06:40:25;100630.06;;;12.24;69.99
29215;BME280;16252;49.816;7.964;2023-02-17T06:42:50;100627.50;;;12.22;69.93
29215;BME280;16252;49.816;7.964;2023-02-17T06:45:16;100647.31;;;12.32;69.94
29215;BME280;16252;49.816;7.964;2023-02-17T06:47:41;100625.47;;;12.26;70.02
29215;BME280;16252;49.816;7.964;2023-02-17T06:50:07;100615.81;;;12.23;69.71
29215;BME280;16252;49.816;7.964;2023-02-17T06:52:32;100625.03;;;12.19;69.73
29215;BME280;16252;49.816;7.964;2023-02-17T06:54:57;100625.38;;;12.14;69.71
29215;BME280;16252;49.816;7.964;2023-02-17T06:57:23;100668.69;;;12.34;69.61
29215;BME280;16252;49.816;7.964;2023-02-17T06:59:48;100672.84;;;12.38;69.83
29215;BME280;16252;49.816;7.964;2023-02-17T07:02:14;100648.63;;;12.27;69.65
29215;BME280;16252;49.816;7.964;2023-02-17T07:04:40;100666.75;;;12.36;69.71
29215;BME280;16252;49.816;7.964;2023-02-17T07:07:06;100685.06;;;12.42;69.45
29215;BME280;16252;49.816;7.964;2023-02-17T07:09:31;100674.28;;;12.31;69.65
29215;BME280;16252;49.816;7.964;2023-02-17T07:11:56;100672.31;;;12.33;69.51
29215;BME280;16252;49.816;7.964;2023-02-17T07:14:23;100683.03;;;12.46;69.47
29215;BME280;16252;49.816;7.964;2023-02-17T07:16:49;100649.16;;;12.32;69.48
29215;BME280;16252;49.816;7.964;2023-02-17T07:19:14;100669.19;;;12.39;69.24
29215;BME280;16252;49.816;7.964;2023-02-17T07:21:39;100670.47;;;12.46;69.30
29215;BME280;16252;49.816;7.964;2023-02-17T07:24:05;100629.38;;;12.33;69.10
29215;BME280;16252;49.816;7.964;2023-02-17T07:26:30;100651.44;;;12.49;68.99
29215;BME280;16252;49.816;7.964;2023-02-17T07:28:55;100615.75;;;12.36;69.06
29215;BME280;16252;49.816;7.964;2023-02-17T07:31:20;100615.53;;;12.39;68.97
29215;BME280;16252;49.816;7.964;2023-02-17T07:33:46;100615.06;;;12.45;68.79
29215;BME280;16252;49.816;7.964;2023-02-17T07:36:15;100635.19;;;12.64;69.13
29215;BME280;16252;49.816;7.964;2023-02-17T07:38:41;100615.66;;;12.62;68.86
29215;BME280;16252;49.816;7.964;2023-02-17T07:41:09;100605.50;;;12.65;68.80
29215;BME280;16252;49.816;7.964;2023-02-17T07:43:35;100626.03;;;12.66;68.68
29215;BME280;16252;49.816;7.964;2023-02-17T07:46:00;100627.97;;;12.64;68.96
29215;BME280;16252;49.816;7.964;2023-02-17T07:48:25;100611.22;;;12.61;68.75
29215;BME280;16252;49.816;7.964;2023-02-17T07:50:50;100629.75;;;12.76;68.68
29215;BME280;16252;49.816;7.964;2023-02-17T07:53:16;100646.72;;;12.77;68.78
29215;BME280;16252;49.816;7.964;2023-02-17T07:55:41;100604.56;;;12.66;68.58
29215;BME280;16252;49.816;7.964;2023-02-17T07:58:06;100633.38;;;12.75;68.67
29215;BME280;16252;49.816;7.964;2023-02-17T08:00:31;100631.44;;;12.77;68.71
29215;BME280;16252;49.816;7.964;2023-02-17T08:02:58;100610.44;;;12.71;68.59
29215;BME280;16252;49.816;7.964;2023-02-17T08:05:23;100643.25;;;12.99;68.93
29215;BME280;16252;49.816;7.964;2023-02-17T08:07:49;100586.13;;;12.73;68.53
29215;BME280;16252;49.816;7.964;2023-02-17T08:10:36;100593.03;;;12.88;68.65
29215;BME280;16252;49.816;7.964;2023-02-17T08:13:21;100615.41;;;13.00;68.70
29215;BME280;16252;49.816;7.964;2023-02-17T08:15:46;100605.66;;;12.99;68.60
29215;BME280;16252;49.816;7.964;2023-02-17T08:18:11;100624.22;;;13.02;68.54
29215;BME280;16252;49.816;7.964;2023-02-17T08:20:37;100620.19;;;13.08;68.61
29215;BME280;16252;49.816;7.964;2023-02-17T08:23:02;100622.41;;;13.14;68.50
29215;BME280;16252;49.816;7.964;2023-02-17T08:25:31;100618.75;;;13.15;68.63
29215;BME280;16252;49.816;7.964;2023-02-17T08:27:56;100599.28;;;13.00;68.62
29215;BME280;16252;49.816;7.964;2023-02-17T08:30:22;100628.91;;;13.22;68.56
29215;BME280;16252;49.816;7.964;2023-02-17T08:32:47;100593.81;;;13.13;68.37
29215;BME280;16252;49.816;7.964;2023-02-17T08:35:13;100600.28;;;13.10;68.64
29215;BME280;16252;49.816;7.964;2023-02-17T08:37:39;100634.81;;;13.28;68.72
29215;BME280;16252;49.816;7.964;2023-02-17T08:40:04;100615.00;;;13.29;68.35
29215;BME280;16252;49.816;7.964;2023-02-17T08:42:31;100634.22;;;13.35;68.56
29215;BME280;16252;49.816;7.964;2023-02-17T08:44:56;100641.06;;;13.39;68.43
29215;BME280;16252;49.816;7.964;2023-02-17T08:47:21;100654.53;;;13.39;68.23
29215;BME280;16252;49.816;7.964;2023-02-17T08:49:47;100646.81;;;13.35;68.31
29215;BME280;16252;49.816;7.964;2023-02-17T08:52:12;100648.25;;;13.39;68.27
29215;BME280;16252;49.816;7.964;2023-02-17T08:54:37;100648.50;;;13.36;68.23
29215;BME280;16252;49.816;7.964;2023-02-17T08:57:03;100667.22;;;13.49;68.37
29215;BME280;16252;49.816;7.964;2023-02-17T08:59:28;100654.63;;;13.49;68.32
29215;BME280;16252;49.816;7.964;2023-02-17T09:01:54;100648.66;;;13.46;68.31
29215;BME280;16252;49.816;7.964;2023-02-17T09:04:20;100625.41;;;13.33;68.43
29215;BME280;16252;49.816;7.964;2023-02-17T09:06:48;100631.28;;;13.38;68.30
29215;BME280;16252;49.816;7.964;2023-02-17T09:09:16;100620.06;;;13.44;68.34
29215;BME280;16252;49.816;7.964;2023-02-17T09:11:43;100589.88;;;13.30;68.44
29215;BME280;16252;49.816;7.964;2023-02-17T09:14:08;100626.78;;;13.50;68.35
29215;BME280;16252;49.816;7.964;2023-02-17T09:16:34;100631.81;;;13.55;68.50
29215;BME280;16252;49.816;7.964;2023-02-17T09:18:59;100626.78;;;13.50;68.30
29215;BME280;16252;49.816;7.964;2023-02-17T09:21:24;100587.88;;;13.32;68.32
29215;BME280;16252;49.816;7.964;2023-02-17T09:23:50;100604.91;;;13.55;68.51
29215;BME280;16252;49.816;7.964;2023-02-17T09:26:16;100621.78;;;13.68;68.50
29215;BME280;16252;49.816;7.964;2023-02-17T09:28:42;100566.41;;;13.43;68.33
29215;BME280;16252;49.816;7.964;2023-02-17T09:31:17;100579.72;;;13.56;67.99
29215;BME280;16252;49.816;7.964;2023-02-17T09:33:43;100629.34;;;13.74;67.81
29215;BME280;16252;49.816;7.964;2023-02-17T09:36:11;100633.78;;;13.75;67.90
29215;BME280;16252;49.816;7.964;2023-02-17T09:38:38;100602.09;;;13.56;67.85
29215;BME280;16252;49.816;7.964;2023-02-17T09:43:48;100653.81;;;13.71;67.87
29215;BME280;16252;49.816;7.964;2023-02-17T09:46:34;100639.25;;;13.74;67.88
29215;BME280;16252;49.816;7.964;2023-02-17T09:49:06;100640.72;;;13.66;67.94
29215;BME280;16252;49.816;7.964;2023-02-17T09:51:44;100650.50;;;13.68;67.80
29215;BME280;16252;49.816;7.964;2023-02-17T09:54:28;100651.50;;;13.78;67.86
29215;BME280;16252;49.816;7.964;2023-02-17T09:56:56;100660.41;;;13.78;68.17
29215;BME280;16252;49.816;7.964;2023-02-17T09:59:29;100657.47;;;13.81;67.97
29215;BME280;16252;49.816;7.964;2023-02-17T10:01:57;100685.84;;;13.85;68.06
29215;BME280;16252;49.816;7.964;2023-02-17T10:04:31;100674.00;;;13.88;67.98
29215;BME280;16252;49.816;7.964;2023-02-17T10:07:23;100671.44;;;13.98;67.72
29215;BME280;16252;49.816;7.964;2023-02-17T10:10:22;100652.72;;;13.96;67.75
29215;BME280;16252;49.816;7.964;2023-02-17T10:12:56;100674.34;;;14.06;67.63
29215;BME280;16252;49.816;7.964;2023-02-17T10:15:29;100631.56;;;13.80;67.63
29215;BME280;16252;49.816;7.964;2023-02-17T10:20:54;100701.38;;;14.16;67.36
29215;BME280;16252;49.816;7.964;2023-02-17T10:23:24;100696.50;;;14.21;67.22
29215;BME280;16252;49.816;7.964;2023-02-17T10:28:58;100721.06;;;14.27;67.21
29215;BME280;16252;49.816;7.964;2023-02-17T10:31:46;100721.06;;;14.27;67.05
29215;BME280;16252;49.816;7.964;2023-02-17T10:36:51;100717.28;;;14.19;67.32
29215;BME280;16252;49.816;7.964;2023-02-17T10:42:13;100729.41;;;14.13;67.17
29215;BME280;16252;49.816;7.964;2023-02-17T10:44:40;100689.53;;;13.96;67.38
29215;BME280;16252;49.816;7.964;2023-02-17T10:47:06;100718.84;;;14.10;67.31
29215;BME280;16252;49.816;7.964;2023-02-17T10:49:40;100681.22;;;13.87;67.23
29215;BME280;16252;49.816;7.964;2023-02-17T10:52:21;100743.09;;;14.21;67.49
29215;BME280;16252;49.816;7.964;2023-02-17T10:54:52;100731.94;;;14.15;67.61
29215;BME280;16252;49.816;7.964;2023-02-17T10:57:19;100717.91;;;14.11;67.69
29215;BME280;16252;49.816;7.964;2023-02-17T10:59:47;100718.84;;;14.10;68.06
29215;BME280;16252;49.816;7.964;2023-02-17T11:02:33;100720.59;;;14.34;67.83
29215;BME280;16252;49.816;7.964;2023-02-17T11:04:59;100701.63;;;14.24;68.17
29215;BME280;16252;49.816;7.964;2023-02-17T11:07:40;100717.13;;;14.43;67.85
29215;BME280;16252;49.816;7.964;2023-02-17T11:10:29;100706.03;;;14.59;67.80
29215;BME280;16252;49.816;7.964;2023-02-17T11:12:55;100724.47;;;14.63;67.77
29215;BME280;16252;49.816;7.964;2023-02-17T11:15:26;100724.19;;;14.78;67.81
29215;BME280;16252;49.816;7.964;2023-02-17T11:17:52;100717.44;;;14.83;67.85
29215;BME280;16252;49.816;7.964;2023-02-17T11:22:46;100701.16;;;15.17;67.39
29215;BME280;16252;49.816;7.964;2023-02-17T11:25:23;100703.13;;;15.36;67.07
29215;BME280;16252;49.816;7.964;2023-02-17T11:27:56;100696.13;;;15.45;66.65
29215;BME280;16252;49.816;7.964;2023-02-17T11:30:22;100680.78;;;15.45;66.27
29215;BME280;16252;49.816;7.964;2023-02-17T11:32:48;100683.47;;;15.45;66.13
29215;BME280;16252;49.816;7.964;2023-02-17T11:35:25;100682.47;;;15.67;65.83
29215;BME280;16252;49.816;7.964;2023-02-17T11:37:59;100670.81;;;15.67;65.62
29215;BME280;16252;49.816;7.964;2023-02-17T11:40:26;100679.41;;;15.72;65.50
29215;BME280;16252;49.816;7.964;2023-02-17T11:43:00;100641.44;;;15.64;65.19
29215;BME280;16252;49.816;7.964;2023-02-17T11:46:20;100670.25;;;15.84;65.65
29215;BME280;16252;49.816;7.964;2023-02-17T11:48:54;100669.28;;;15.95;65.58
29215;BME280;16252;49.816;7.964;2023-02-17T11:54:22;100678.72;;;16.00;65.00
29215;BME280;16252;49.816;7.964;2023-02-17T11:57:10;100679.72;;;16.09;64.78
29215;BME280;16252;49.816;7.964;2023-02-17T12:00:04;100647.69;;;15.95;65.31
29215;BME280;16252;49.816;7.964;2023-02-17T12:08:06;100696.03;;;16.08;64.53
29215;BME280;16252;49.816;7.964;2023-02-17T12:16:22;100686.66;;;15.71;64.34
29215;BME280;16252;49.816;7.964;2023-02-17T12:22:00;100689.34;;;15.71;64.85
29215;BME280;16252;49.816;7.964;2023-02-17T12:35:48;100654.09;;;15.42;65.50
29215;BME280;16252;49.816;7.964;2023-02-17T12:38:21;100666.13;;;15.38;65.29
29215;BME280;16252;49.816;7.964;2023-02-17T12:40:55;100654.16;;;15.31;65.39
29215;BME280;16252;49.816;7.964;2023-02-17T12:43:30;100683.47;;;15.45;65.25
29215;BME280;16252;49.816;7.964;2023-02-17T12:46:03;100647.78;;;15.32;65.52
29215;BME280;16252;49.816;7.964;2023-02-17T12:48:41;100682.94;;;15.51;65.52
29215;BME280;16252;49.816;7.964;2023-02-17T12:51:32;100638.88;;;15.41;65.49
29215;BME280;16252;49.816;7.964;2023-02-17T12:54:21;100653.22;;;15.63;65.92
29215;BME280;16252;49.816;7.964;2023-02-17T12:56:51;100655.91;;;15.63;65.82
29215;BME280;16252;49.816;7.964;2023-02-17T12:59:25;100649.72;;;15.72;65.61
29215;BME280;16252;49.816;7.964;2023-02-17T13:01:57;100644.66;;;15.78;65.46
29215;BME280;16252;49.816;7.964;2023-02-17T13:04:25;100636.13;;;15.73;65.42
29215;BME280;16252;49.816;7.964;2023-02-17T13:07:03;100640.88;;;15.91;65.46
29215;BME280;16252;49.816;7.964;2023-02-17T13:14:49;100650.16;;;15.98;65.42
29215;BME280;16252;49.816;7.964;2023-02-17T13:17:27;100601.94;;;15.84;65.08
29215;BME280;16252;49.816;7.964;2023-02-17T13:22:44;100646.75;;;16.06;64.99
29215;BME280;16252;49.816;7.964;2023-02-17T13:25:12;100634.06;;;15.96;64.79
29215;BME280;16252;49.816;7.964;2023-02-17T13:27:39;100626.97;;;15.95;64.62
29215;BME280;16252;49.816;7.964;2023-02-17T13:30:27;100629.13;;;16.01;65.08
29215;BME280;16252;49.816;7.964;2023-02-17T13:37:51;100607.44;;;15.82;64.51
29215;BME280;16252;49.816;7.964;2023-02-17T13:42:44;100615.16;;;15.87;64.51
29215;BME280;16252;49.816;7.964;2023-02-17T13:45:32;100614.63;;;15.93;64.87
29215;BME280;16252;49.816;7.964;2023-02-17T13:50:49;100626.50;;;15.80;64.46
29215;BME280;16252;49.816;7.964;2023-02-17T13:53:22;100633.75;;;15.80;64.74
29215;BME280;16252;49.816;7.964;2023-02-17T13:55:47;100607.47;;;15.61;65.04
29215;BME280;16252;49.816;7.964;2023-02-17T13:58:13;100632.56;;;15.73;64.83
29215;BME280;16252;49.816;7.964;2023-02-17T14:00:41;100629.50;;;15.66;64.75
29215;BME280;16252;49.816;7.964;2023-02-17T14:03:31;100621.50;;;15.76;64.76
29215;BME280;16252;49.816;7.964;2023-02-17T14:05:58;100609.59;;;15.57;65.03
29215;BME280;16252;49.816;7.964;2023-02-17T14:10:53;100620.13;;;15.60;64.94
29215;BME280;16252;49.816;7.964;2023-02-17T14:13:19;100600.78;;;15.55;64.97
29215;BME280;16252;49.816;7.964;2023-02-17T14:15:54;100612.31;;;15.57;65.33